createdAt,value
2023-04-20T00:00:16.094Z,32.77
2023-04-20T00:01:16.118Z,32.78
2023-04-20T00:02:16.189Z,32.80
2023-04-20T00:03:16.422Z,32.80
2023-04-20T00:04:16.251Z,32.81
2023-04-20T00:05:16.214Z,32.82
2023-04-20T00:06:16.179Z,32.78
2023-04-20T00:07:16.148Z,32.78
2023-04-20T00:08:16.242Z,32.79
2023-04-20T00:09:16.514Z,32.80
2023-04-20T00:10:16.356Z,32.77
2023-04-20T00:11:16.381Z,32.77
2023-04-20T00:12:16.370Z,32.76
2023-04-20T00:13:16.389Z,32.80
2023-04-20T00:14:16.359Z,32.80
2023-04-20T00:15:16.363Z,32.78
2023-04-20T00:16:16.483Z,32.80
2023-04-20T00:17:16.413Z,32.78
2023-04-20T00:18:16.419Z,32.76
2023-04-20T00:19:16.691Z,32.72
2023-04-20T00:20:16.427Z,32.79
2023-04-20T00:21:16.416Z,32.71
2023-04-20T00:22:16.433Z,32.71
2023-04-20T00:23:16.434Z,32.75
2023-04-20T00:24:16.435Z,32.74
2023-04-20T00:25:16.516Z,32.79
2023-04-20T00:26:16.546Z,32.77
2023-04-20T00:27:16.493Z,32.77
2023-04-20T00:28:16.562Z,32.76
2023-04-20T00:29:16.739Z,32.71
2023-04-20T00:30:16.532Z,32.74
2023-04-20T00:31:16.645Z,32.75
2023-04-20T00:32:16.724Z,32.76
2023-04-20T00:33:16.818Z,32.71
2023-04-20T00:34:16.845Z,32.71
2023-04-20T00:35:16.838Z,32.69
2023-04-20T00:36:16.873Z,32.71
2023-04-20T00:37:16.857Z,32.70
2023-04-20T00:38:16.833Z,32.69
2023-04-20T00:39:17.060Z,32.68
2023-04-20T00:40:17.042Z,32.70
2023-04-20T00:41:17.122Z,32.68
2023-04-20T00:42:17.215Z,32.68
2023-04-20T00:43:17.287Z,32.68
2023-04-20T00:44:17.377Z,32.70
2023-04-20T00:45:17.404Z,32.69
2023-04-20T00:46:17.466Z,32.75
2023-04-20T00:47:17.434Z,32.73
2023-04-20T00:48:17.434Z,32.75
2023-04-20T00:49:17.528Z,32.67
2023-04-20T00:50:17.506Z,32.65
2023-04-20T00:51:17.633Z,32.64
2023-04-20T00:52:17.607Z,32.63
2023-04-20T00:53:17.621Z,32.57
2023-04-20T00:54:17.646Z,32.61
2023-04-20T00:55:17.643Z,32.69
2023-04-20T00:56:17.646Z,32.68
2023-04-20T00:57:17.709Z,32.68
2023-04-20T00:58:17.718Z,32.69
2023-04-20T00:59:17.994Z,32.69
2023-04-20T01:00:17.798Z,32.67
2023-04-20T01:01:18.027Z,32.64
2023-04-20T01:02:17.989Z,32.62
2023-04-20T01:03:18.226Z,32.63
2023-04-20T01:04:18.209Z,32.64
2023-04-20T01:05:18.142Z,32.62
2023-04-20T01:06:18.183Z,32.61
2023-04-20T01:07:18.156Z,32.63
2023-04-20T01:08:18.149Z,32.60
2023-04-20T01:09:18.281Z,32.61
2023-04-20T01:10:18.230Z,32.62
2023-04-20T01:11:18.355Z,32.63
2023-04-20T01:12:18.346Z,32.60
2023-04-20T01:13:18.354Z,32.59
2023-04-20T01:14:18.352Z,32.63
2023-04-20T01:15:18.341Z,32.60
2023-04-20T01:16:18.415Z,32.59
2023-04-20T01:17:18.484Z,32.60
2023-04-20T01:18:18.568Z,32.57
2023-04-20T01:19:18.891Z,32.58
2023-04-20T01:20:18.770Z,32.56
2023-04-20T01:21:18.775Z,32.53
2023-04-20T01:22:18.776Z,32.53
2023-04-20T01:23:18.768Z,32.50
2023-04-20T01:24:18.791Z,32.49
2023-04-20T01:25:18.817Z,32.50
2023-04-20T01:26:18.886Z,32.51
2023-04-20T01:27:19.016Z,32.47
2023-04-20T01:28:20.167Z,32.49
2023-04-20T01:29:19.176Z,32.46
2023-04-20T01:30:19.020Z,32.47
2023-04-20T01:31:19.112Z,32.46
2023-04-20T01:32:19.198Z,32.45
2023-04-20T01:33:19.225Z,32.45
2023-04-20T01:34:19.205Z,32.38
2023-04-20T01:35:19.227Z,32.39
2023-04-20T01:36:19.236Z,32.39
2023-04-20T01:37:19.230Z,32.40
2023-04-20T01:38:19.350Z,32.37
2023-04-20T01:39:19.676Z,32.40
2023-04-20T01:40:19.463Z,32.40
2023-04-20T01:41:19.463Z,32.39
2023-04-20T01:42:19.437Z,32.37
2023-04-20T01:43:19.496Z,32.37
2023-04-20T01:44:19.487Z,32.37
2023-04-20T01:45:19.557Z,32.36
2023-04-20T01:46:19.758Z,32.35
2023-04-20T01:47:19.671Z,32.33
2023-04-20T01:48:19.696Z,32.35
2023-04-20T01:49:19.938Z,32.33
2023-04-20T01:50:19.730Z,32.32
2023-04-20T01:51:19.728Z,32.33
2023-04-20T01:52:19.830Z,32.34
2023-04-20T01:53:20.508Z,32.29
2023-04-20T01:54:19.953Z,32.30
2023-04-20T01:55:20.314Z,32.29
2023-04-20T01:56:20.023Z,32.29
2023-04-20T01:57:20.027Z,32.29
2023-04-20T01:58:20.028Z,32.27
2023-04-20T01:59:20.084Z,32.27
2023-04-20T02:00:20.065Z,32.29
2023-04-20T02:01:20.122Z,32.32
2023-04-20T02:02:20.206Z,32.35
2023-04-20T02:03:20.341Z,32.33
2023-04-20T02:04:20.172Z,32.31
2023-04-20T02:05:20.208Z,32.30
2023-04-20T02:06:20.185Z,32.29
2023-04-20T02:07:20.198Z,32.29
2023-04-20T02:08:20.259Z,32.33
2023-04-20T02:09:20.252Z,32.29
2023-04-20T02:10:20.375Z,32.31
2023-04-20T02:11:20.350Z,32.36
2023-04-20T02:12:20.361Z,32.32
2023-04-20T02:13:20.414Z,32.34
2023-04-20T02:14:20.419Z,32.36
2023-04-20T02:15:20.401Z,32.33
2023-04-20T02:16:20.475Z,32.35
2023-04-20T02:17:20.562Z,32.37
2023-04-20T02:18:20.467Z,32.36
2023-04-20T02:19:20.501Z,32.37
2023-04-20T02:20:20.524Z,32.34
2023-04-20T02:21:20.587Z,32.33
2023-04-20T02:22:20.588Z,32.32
2023-04-20T02:23:20.646Z,32.34
2023-04-20T02:24:20.659Z,32.33
2023-04-20T02:25:20.620Z,32.34
2023-04-20T02:26:20.695Z,32.29
2023-04-20T02:27:20.694Z,32.31
2023-04-20T02:28:20.698Z,32.32
2023-04-20T02:29:20.813Z,32.37
2023-04-20T02:30:20.721Z,32.35
2023-04-20T02:31:20.888Z,32.31
2023-04-20T02:32:20.805Z,32.31
2023-04-20T02:33:20.841Z,32.30
2023-04-20T02:34:20.891Z,32.32
2023-04-20T02:35:20.850Z,32.32
2023-04-20T02:36:20.887Z,32.31
2023-04-20T02:37:20.936Z,32.28
2023-04-20T02:38:20.918Z,32.31
2023-04-20T02:39:20.950Z,32.28
2023-04-20T02:40:20.994Z,32.36
2023-04-20T02:41:21.029Z,32.33
2023-04-20T02:42:21.031Z,32.31
2023-04-20T02:43:21.052Z,32.29
2023-04-20T02:44:21.051Z,32.26
2023-04-20T02:45:21.054Z,32.28
2023-04-20T02:46:21.166Z,32.32
2023-04-20T02:47:21.170Z,32.31
2023-04-20T02:48:21.169Z,32.33
2023-04-20T02:49:21.151Z,32.33
2023-04-20T02:50:21.182Z,32.34
2023-04-20T02:51:21.167Z,32.36
2023-04-20T02:52:21.279Z,32.32
2023-04-20T02:53:21.321Z,32.30
2023-04-20T02:54:21.307Z,32.29
2023-04-20T02:55:21.310Z,32.25
2023-04-20T02:56:21.357Z,32.28
2023-04-20T02:57:21.377Z,32.26
2023-04-20T02:58:21.377Z,32.33
2023-04-20T02:59:21.385Z,32.28
2023-04-20T03:00:21.430Z,32.33
2023-04-20T03:01:21.530Z,32.32
2023-04-20T03:02:21.599Z,32.31
2023-04-20T03:03:21.576Z,32.30
2023-04-20T03:04:21.790Z,32.32
2023-04-20T03:05:21.553Z,32.29
2023-04-20T03:06:21.574Z,32.26
2023-04-20T03:07:21.783Z,32.28
2023-04-20T03:08:21.599Z,32.25
2023-04-20T03:09:21.673Z,32.23
2023-04-20T03:10:21.659Z,32.24
2023-04-20T03:11:21.688Z,32.24
2023-04-20T03:12:21.725Z,32.26
2023-04-20T03:13:21.705Z,32.24
2023-04-20T03:14:21.758Z,32.24
2023-04-20T03:15:21.777Z,32.21
2023-04-20T03:16:21.882Z,32.20
2023-04-20T03:17:21.815Z,32.20
2023-04-20T03:18:21.852Z,32.21
2023-04-20T03:19:21.846Z,32.20
2023-04-20T03:20:21.870Z,32.17
2023-04-20T03:21:21.954Z,32.18
2023-04-20T03:22:21.890Z,32.17
2023-04-20T03:23:21.913Z,32.16
2023-04-20T03:24:21.958Z,32.19
2023-04-20T03:25:21.960Z,32.18
2023-04-20T03:26:21.964Z,32.16
2023-04-20T03:27:21.977Z,32.17
2023-04-20T03:28:22.035Z,32.14
2023-04-20T03:29:22.015Z,32.15
2023-04-20T03:30:22.034Z,32.13
2023-04-20T03:31:22.090Z,32.12
2023-04-20T03:32:22.093Z,32.11
2023-04-20T03:33:22.098Z,32.09
2023-04-20T03:34:22.122Z,32.12
2023-04-20T03:35:22.154Z,32.12
2023-04-20T03:36:22.183Z,32.11
2023-04-20T03:37:22.181Z,32.12
2023-04-20T03:38:22.213Z,32.12
2023-04-20T03:39:22.248Z,32.09
2023-04-20T03:40:22.273Z,32.09
2023-04-20T03:41:22.270Z,32.10
2023-04-20T03:42:22.299Z,32.10
2023-04-20T03:43:22.324Z,32.07
2023-04-20T03:44:22.343Z,32.11
2023-04-20T03:45:22.327Z,32.11
2023-04-20T03:46:23.503Z,32.13
2023-04-20T03:47:22.409Z,32.09
2023-04-20T03:48:22.408Z,32.13
2023-04-20T03:49:22.439Z,32.13
2023-04-20T03:50:22.456Z,32.12
2023-04-20T03:51:22.483Z,32.11
2023-04-20T03:52:22.529Z,32.11
2023-04-20T03:53:22.528Z,32.09
2023-04-20T03:54:22.565Z,32.09
2023-04-20T03:55:22.702Z,32.11
2023-04-20T03:56:22.562Z,32.09
2023-04-20T03:57:22.609Z,32.08
2023-04-20T03:58:22.627Z,32.09
2023-04-20T03:59:22.742Z,32.06
2023-04-20T04:00:22.733Z,32.06
2023-04-20T04:01:22.769Z,32.06
2023-04-20T04:02:22.940Z,32.05
2023-04-20T04:03:22.974Z,32.07
2023-04-20T04:04:23.106Z,32.06
2023-04-20T04:05:22.891Z,32.07
2023-04-20T04:06:22.837Z,32.05
2023-04-20T04:07:22.835Z,32.03
2023-04-20T04:08:22.836Z,32.03
2023-04-20T04:09:22.913Z,32.04
2023-04-20T04:10:22.911Z,32.04
2023-04-20T04:11:22.907Z,32.02
2023-04-20T04:12:22.940Z,32.02
2023-04-20T04:13:22.980Z,32.01
2023-04-20T04:14:23.008Z,32.03
2023-04-20T04:15:23.032Z,32.01
2023-04-20T04:16:23.103Z,32.00
2023-04-20T04:17:23.073Z,31.99
2023-04-20T04:18:23.113Z,32.00
2023-04-20T04:19:23.163Z,31.98
2023-04-20T04:20:23.173Z,31.97
2023-04-20T04:21:23.195Z,31.99
2023-04-20T04:22:23.213Z,31.99
2023-04-20T04:23:23.242Z,31.99
2023-04-20T04:24:23.294Z,31.98
2023-04-20T04:25:23.329Z,31.98
2023-04-20T04:26:23.377Z,31.98
2023-04-20T04:27:23.341Z,31.96
2023-04-20T04:28:23.362Z,31.95
2023-04-20T04:29:23.411Z,31.98
2023-04-20T04:30:23.404Z,31.97
2023-04-20T04:31:23.513Z,31.97
2023-04-20T04:32:23.444Z,31.98
2023-04-20T04:33:23.512Z,32.00
2023-04-20T04:34:23.554Z,31.97
2023-04-20T04:35:23.543Z,32.00
2023-04-20T04:36:23.592Z,31.98
2023-04-20T04:37:23.599Z,31.98
2023-04-20T04:38:23.618Z,31.99
2023-04-20T04:39:23.646Z,32.00
2023-04-20T04:40:23.682Z,31.98
2023-04-20T04:41:23.707Z,31.99
2023-04-20T04:42:23.730Z,31.99
2023-04-20T04:43:23.762Z,32.03
2023-04-20T04:44:23.807Z,32.03
2023-04-20T04:45:23.826Z,32.03
2023-04-20T04:46:23.867Z,32.00
2023-04-20T04:47:23.878Z,31.99
2023-04-20T04:48:23.920Z,32.00
2023-04-20T04:49:23.951Z,31.94
2023-04-20T04:50:23.945Z,31.97
2023-04-20T04:51:23.998Z,32.00
2023-04-20T04:52:24.030Z,32.07
2023-04-20T04:53:24.064Z,32.01
2023-04-20T04:54:24.085Z,32.03
2023-04-20T04:55:24.118Z,32.05
2023-04-20T04:56:24.143Z,31.99
2023-04-20T04:57:24.181Z,32.02
2023-04-20T04:58:24.198Z,32.04
2023-04-20T04:59:24.241Z,32.04
2023-04-20T05:00:24.253Z,32.04
2023-04-20T05:01:24.336Z,32.00
2023-04-20T05:02:24.450Z,32.04
2023-04-20T05:03:24.481Z,32.06
2023-04-20T05:04:24.481Z,32.08
2023-04-20T05:05:24.387Z,32.08
2023-04-20T05:06:24.424Z,32.05
2023-04-20T05:07:24.401Z,32.01
2023-04-20T05:08:24.454Z,32.01
2023-04-20T05:09:24.437Z,32.00
2023-04-20T05:10:24.495Z,32.03
2023-04-20T05:11:24.550Z,32.00
2023-04-20T05:12:24.537Z,32.07
2023-04-20T05:13:24.592Z,32.00
2023-04-20T05:14:24.599Z,32.07
2023-04-20T05:15:24.629Z,32.03
2023-04-20T05:16:24.780Z,32.02
2023-04-20T05:17:24.766Z,31.99
2023-04-20T05:18:24.762Z,31.96
2023-04-20T05:19:24.895Z,32.00
2023-04-20T05:20:24.791Z,32.00
2023-04-20T05:21:24.868Z,31.99
2023-04-20T05:22:24.894Z,31.97
2023-04-20T05:23:24.952Z,32.01
2023-04-20T05:24:24.980Z,32.01
2023-04-20T05:25:24.986Z,32.00
2023-04-20T05:26:25.050Z,32.03
2023-04-20T05:27:25.070Z,32.01
2023-04-20T05:28:25.078Z,32.03
2023-04-20T05:29:25.117Z,32.02
2023-04-20T05:30:25.144Z,32.03
2023-04-20T05:31:25.227Z,32.03
2023-04-20T05:32:25.227Z,32.02
2023-04-20T05:33:25.261Z,32.00
2023-04-20T05:34:25.282Z,31.98
2023-04-20T05:35:25.310Z,32.01
2023-04-20T05:36:25.327Z,32.01
2023-04-20T05:37:27.104Z,32.00
2023-04-20T05:38:25.444Z,32.08
2023-04-20T05:39:25.443Z,32.13
2023-04-20T05:40:25.465Z,32.10
2023-04-20T05:41:25.483Z,32.15
2023-04-20T05:42:25.484Z,32.14
2023-04-20T05:43:25.521Z,32.18
2023-04-20T05:44:25.575Z,32.21
2023-04-20T05:45:25.581Z,32.37
2023-04-20T05:46:25.675Z,32.33
2023-04-20T05:47:25.701Z,32.31
2023-04-20T05:48:27.772Z,32.51
2023-04-20T05:49:25.673Z,32.63
2023-04-20T05:50:25.628Z,32.88
2023-04-20T05:51:25.685Z,33.30
2023-04-20T05:52:25.664Z,33.52
2023-04-20T05:53:25.610Z,33.56
2023-04-20T05:54:26.082Z,33.67
2023-04-20T05:55:25.642Z,34.06
2023-04-20T05:56:25.610Z,34.23
2023-04-20T05:57:25.651Z,34.43
2023-04-20T05:58:25.606Z,34.75
2023-04-20T05:59:25.592Z,34.99
2023-04-20T06:00:26.388Z,35.23
2023-04-20T06:01:25.598Z,35.66
2023-04-20T06:02:25.648Z,35.31
2023-04-20T06:03:25.761Z,35.64
2023-04-20T06:04:25.952Z,35.36
2023-04-20T06:05:25.611Z,34.57
2023-04-20T06:06:25.569Z,34.66
2023-04-20T06:07:25.535Z,33.30
2023-04-20T06:08:25.563Z,32.82
2023-04-20T06:09:25.569Z,32.65
2023-04-20T06:10:25.508Z,32.85
2023-04-20T06:11:25.520Z,33.56
2023-04-20T06:12:26.745Z,34.59
2023-04-20T06:13:25.515Z,35.09
2023-04-20T06:14:25.522Z,32.79
2023-04-20T06:15:25.509Z,32.53
2023-04-20T06:16:25.530Z,33.20
2023-04-20T06:17:25.492Z,34.03
2023-04-20T06:18:25.464Z,33.37
2023-04-20T06:19:25.474Z,32.60
2023-04-20T06:20:25.467Z,33.16
2023-04-20T06:21:25.456Z,33.47
2023-04-20T06:22:25.450Z,34.31
2023-04-20T06:23:25.467Z,34.78
2023-04-20T06:24:25.460Z,34.90
2023-04-20T06:25:25.429Z,35.10
2023-04-20T06:26:25.410Z,35.20
2023-04-20T06:27:25.403Z,35.33
2023-04-20T06:28:25.410Z,35.57
2023-04-20T06:29:25.421Z,35.64
2023-04-20T06:30:25.380Z,35.83
2023-04-20T06:31:25.454Z,35.90
2023-04-20T06:32:25.377Z,36.04
2023-04-20T06:33:25.346Z,36.13
2023-04-20T06:34:25.349Z,36.29
2023-04-20T06:35:25.355Z,36.33
2023-04-20T06:36:25.348Z,36.37
2023-04-20T06:37:25.351Z,36.36
2023-04-20T06:38:27.142Z,36.28
2023-04-20T06:39:25.408Z,36.37
2023-04-20T06:40:25.384Z,36.71
2023-04-20T06:41:25.425Z,36.96
2023-04-20T06:42:25.429Z,37.17
2023-04-20T06:43:25.430Z,37.33
2023-04-20T06:44:25.472Z,37.50
2023-04-20T06:45:25.461Z,37.47
2023-04-20T06:46:25.492Z,37.62
2023-04-20T06:47:25.462Z,37.55
2023-04-20T06:48:32.217Z,37.19
2023-04-20T06:49:26.460Z,37.05
2023-04-20T06:50:25.436Z,37.04
2023-04-20T06:51:25.453Z,36.50
2023-04-20T06:52:25.445Z,36.54
2023-04-20T06:53:25.479Z,36.27
2023-04-20T06:54:25.448Z,36.32
2023-04-20T06:55:25.494Z,36.20
2023-04-20T06:56:25.499Z,36.14
2023-04-20T06:57:25.382Z,36.12
2023-04-20T06:58:25.390Z,35.96
2023-04-20T06:59:25.383Z,35.90
2023-04-20T07:00:25.404Z,35.41
2023-04-20T07:01:25.439Z,35.25
2023-04-20T07:02:25.415Z,35.41
2023-04-20T07:03:25.482Z,35.42
2023-04-20T07:04:25.397Z,35.36
2023-04-20T07:05:25.467Z,35.19
2023-04-20T07:06:25.379Z,35.03
2023-04-20T07:07:25.413Z,34.78
2023-04-20T07:08:25.453Z,34.63
2023-04-20T07:09:25.462Z,34.39
2023-04-20T07:10:25.520Z,34.32
2023-04-20T07:11:25.540Z,34.25
2023-04-20T07:12:25.600Z,34.21
2023-04-20T07:13:25.618Z,34.25
2023-04-20T07:14:25.707Z,34.09
2023-04-20T07:15:25.654Z,34.23
2023-04-20T07:16:25.746Z,34.14
2023-04-20T07:17:25.720Z,33.99
2023-04-20T07:18:25.746Z,33.83
2023-04-20T07:19:26.219Z,33.89
2023-04-20T07:20:26.177Z,33.94
2023-04-20T07:21:25.862Z,33.85
2023-04-20T07:22:25.892Z,33.78
2023-04-20T07:23:25.974Z,33.80
2023-04-20T07:24:25.983Z,33.76
2023-04-20T07:25:25.990Z,33.71
2023-04-20T07:26:26.050Z,33.64
2023-04-20T07:27:26.060Z,33.55
2023-04-20T07:28:26.105Z,33.47
2023-04-20T07:29:26.165Z,33.35
2023-04-20T07:30:26.247Z,33.36
2023-04-20T07:31:26.278Z,33.37
2023-04-20T07:32:26.316Z,33.34
2023-04-20T07:33:26.302Z,33.29
2023-04-20T07:34:26.350Z,33.18
2023-04-20T07:35:26.369Z,33.15
2023-04-20T07:36:26.433Z,33.21
2023-04-20T07:37:27.326Z,33.12
2023-04-20T07:38:26.500Z,33.06
2023-04-20T07:39:27.139Z,32.93
2023-04-20T07:40:26.571Z,32.98
2023-04-20T07:41:26.614Z,33.01
2023-04-20T07:42:26.669Z,33.15
2023-04-20T07:43:26.673Z,33.32
2023-04-20T07:44:27.110Z,33.52
2023-04-20T07:45:26.774Z,33.73
2023-04-20T07:46:26.737Z,33.94
2023-04-20T07:47:26.818Z,34.14
2023-04-20T07:48:26.821Z,34.38
2023-04-20T07:49:27.143Z,34.46
2023-04-20T07:50:26.880Z,34.56
2023-04-20T07:51:26.894Z,34.56
2023-04-20T07:52:26.892Z,34.64
2023-04-20T07:53:26.887Z,34.78
2023-04-20T07:54:26.899Z,34.76
2023-04-20T07:55:27.025Z,34.90
2023-04-20T07:56:26.944Z,34.77
2023-04-20T07:57:26.943Z,34.70
2023-04-20T07:58:26.947Z,34.69
2023-04-20T07:59:27.171Z,34.80
2023-04-20T08:00:26.986Z,34.92
2023-04-20T08:01:27.011Z,35.05
2023-04-20T08:02:27.110Z,35.28
2023-04-20T08:03:27.153Z,35.30
2023-04-20T08:04:27.319Z,35.39
2023-04-20T08:05:27.337Z,35.50
2023-04-20T08:06:27.040Z,35.44
2023-04-20T08:07:27.081Z,35.49
2023-04-20T08:08:27.200Z,35.59
2023-04-20T08:09:27.207Z,35.55
2023-04-20T08:10:27.348Z,35.56
2023-04-20T08:11:27.641Z,35.54
2023-04-20T08:12:27.436Z,35.55
2023-04-20T08:13:27.510Z,35.55
2023-04-20T08:14:27.548Z,35.57
2023-04-20T08:15:27.596Z,35.57
2023-04-20T08:16:27.699Z,35.62
2023-04-20T08:17:27.709Z,35.65
2023-04-20T08:18:27.795Z,35.68
2023-04-20T08:19:27.854Z,35.67
2023-04-20T08:20:27.936Z,35.70
2023-04-20T08:21:28.765Z,35.64
2023-04-20T08:22:27.998Z,35.65
2023-04-20T08:23:28.084Z,35.70
2023-04-20T08:24:28.136Z,35.78
2023-04-20T08:25:28.201Z,35.81
2023-04-20T08:26:28.242Z,35.86
2023-04-20T08:27:28.371Z,35.84
2023-04-20T08:28:33.251Z,35.89
2023-04-20T08:29:29.385Z,35.91
2023-04-20T08:30:28.373Z,35.98
2023-04-20T08:31:28.410Z,35.91
2023-04-20T08:32:28.380Z,35.98
2023-04-20T08:33:28.352Z,35.98
2023-04-20T08:34:28.330Z,36.07
2023-04-20T08:35:28.337Z,36.08
2023-04-20T08:36:28.302Z,36.10
2023-04-20T08:37:29.536Z,36.44
2023-04-20T08:38:33.717Z,36.42
2023-04-20T08:39:29.641Z,36.37
2023-04-20T08:40:28.319Z,36.38
2023-04-20T08:41:28.280Z,36.41
2023-04-20T08:42:28.291Z,36.35
2023-04-20T08:43:28.285Z,36.40
2023-04-20T08:44:28.273Z,36.45
2023-04-20T08:45:28.256Z,36.48
2023-04-20T08:46:28.278Z,36.47
2023-04-20T08:47:28.290Z,36.50
2023-04-20T08:48:28.260Z,36.52
2023-04-20T08:49:28.253Z,36.53
2023-04-20T08:50:28.235Z,35.96
2023-04-20T08:51:28.224Z,35.91
2023-04-20T08:52:28.233Z,35.55
2023-04-20T08:53:28.227Z,36.04
2023-04-20T08:54:28.237Z,36.18
2023-04-20T08:55:28.242Z,36.12
2023-04-20T08:56:28.267Z,36.18
2023-04-20T08:57:28.281Z,36.21
2023-04-20T08:58:28.318Z,36.33
2023-04-20T08:59:28.598Z,36.38
2023-04-20T09:00:28.412Z,36.32
2023-04-20T09:01:34.932Z,36.21
2023-04-20T09:02:29.521Z,36.27
2023-04-20T09:03:28.520Z,36.27
2023-04-20T09:04:28.624Z,36.12
2023-04-20T09:05:28.402Z,36.04
2023-04-20T09:06:28.372Z,35.94
2023-04-20T09:07:28.430Z,35.91
2023-04-20T09:08:28.368Z,35.68
2023-04-20T09:09:28.394Z,35.82
2023-04-20T09:10:28.363Z,35.63
2023-04-20T09:11:28.391Z,35.44
2023-04-20T09:12:28.376Z,35.47
2023-04-20T09:13:28.348Z,35.45
2023-04-20T09:14:28.312Z,35.30
2023-04-20T09:15:28.350Z,35.14
2023-04-20T09:16:28.355Z,35.11
2023-04-20T09:17:28.348Z,34.92
2023-04-20T09:18:28.301Z,34.82
2023-04-20T09:19:28.319Z,34.87
2023-04-20T09:20:28.330Z,34.75
2023-04-20T09:21:28.374Z,34.75
2023-04-20T09:22:28.402Z,34.67
2023-04-20T09:23:28.456Z,34.43
2023-04-20T09:24:28.482Z,34.64
2023-04-20T09:25:29.213Z,34.57
2023-04-20T09:26:28.556Z,34.50
2023-04-20T09:27:28.560Z,34.49
2023-04-20T09:28:28.599Z,34.51
2023-04-20T09:29:28.640Z,34.37
2023-04-20T09:30:28.682Z,34.26
2023-04-20T09:31:28.732Z,34.32
2023-04-20T09:32:28.844Z,34.28
2023-04-20T09:33:28.708Z,34.24
2023-04-20T09:34:29.198Z,34.24
2023-04-20T09:35:28.782Z,34.20
2023-04-20T09:36:28.830Z,34.19
2023-04-20T09:37:28.831Z,34.20
2023-04-20T09:38:28.860Z,34.13
2023-04-20T09:39:29.189Z,34.11
2023-04-20T09:40:28.906Z,33.93
2023-04-20T09:41:28.933Z,33.96
2023-04-20T09:42:29.002Z,33.64
2023-04-20T09:43:28.985Z,33.34
2023-04-20T09:44:29.178Z,33.43
2023-04-20T09:45:29.004Z,33.56
2023-04-20T09:46:29.065Z,33.62
2023-04-20T09:47:29.026Z,33.59
2023-04-20T09:48:31.946Z,33.76
2023-04-20T09:49:28.983Z,33.70
2023-04-20T09:50:38.300Z,33.75
2023-04-20T09:51:29.960Z,33.71
2023-04-20T09:52:28.972Z,33.71
2023-04-20T09:53:28.943Z,33.67
2023-04-20T09:54:29.200Z,33.62
2023-04-20T09:55:28.922Z,33.67
2023-04-20T09:56:28.921Z,33.67
2023-04-20T09:57:28.912Z,33.65
2023-04-20T09:58:28.930Z,33.66
2023-04-20T09:59:28.920Z,33.63
2023-04-20T10:00:28.912Z,33.51
2023-04-20T10:01:28.951Z,33.55
2023-04-20T10:02:28.935Z,33.56
2023-04-20T10:03:29.046Z,33.50
2023-04-20T10:04:29.042Z,33.37
2023-04-20T10:05:28.868Z,33.37
2023-04-20T10:06:28.875Z,33.37
2023-04-20T10:07:28.871Z,33.42
2023-04-20T10:08:28.850Z,33.48
2023-04-20T10:09:28.861Z,33.53
2023-04-20T10:10:28.839Z,33.60
2023-04-20T10:11:37.096Z,33.74
2023-04-20T10:12:29.801Z,33.88
2023-04-20T10:13:28.808Z,33.97
2023-04-20T10:14:28.823Z,34.03
2023-04-20T10:15:28.823Z,34.08
2023-04-20T10:16:28.879Z,34.19
2023-04-20T10:17:28.880Z,34.31
2023-04-20T10:18:28.853Z,34.35
2023-04-20T10:19:28.787Z,34.38
2023-04-20T10:20:28.759Z,34.47
2023-04-20T10:21:28.773Z,34.50
2023-04-20T10:22:28.785Z,34.52
2023-04-20T10:23:28.765Z,34.53
2023-04-20T10:24:28.767Z,34.49
2023-04-20T10:25:28.822Z,34.65
2023-04-20T10:26:28.860Z,34.80
2023-04-20T10:27:28.942Z,35.01
2023-04-20T10:28:29.009Z,35.29
2023-04-20T10:29:29.071Z,35.48
2023-04-20T10:30:29.103Z,35.66
2023-04-20T10:31:29.189Z,35.80
2023-04-20T10:32:29.289Z,35.91
2023-04-20T10:33:29.282Z,35.99
2023-04-20T10:34:29.334Z,36.07
2023-04-20T10:35:29.412Z,36.23
2023-04-20T10:36:29.434Z,36.29
2023-04-20T10:37:29.495Z,36.39
2023-04-20T10:38:29.516Z,36.26
2023-04-20T10:39:29.686Z,36.25
2023-04-20T10:40:29.629Z,36.14
2023-04-20T10:41:29.681Z,36.07
2023-04-20T10:42:29.854Z,36.16
2023-04-20T10:43:29.780Z,36.12
2023-04-20T10:44:29.829Z,36.11
2023-04-20T10:45:29.864Z,36.04
2023-04-20T10:46:29.980Z,36.01
2023-04-20T10:47:30.041Z,36.00
2023-04-20T10:48:30.045Z,35.96
2023-04-20T10:49:30.087Z,35.95
2023-04-20T10:50:30.148Z,35.94
2023-04-20T10:51:30.258Z,35.94
2023-04-20T10:52:30.258Z,35.92
2023-04-20T10:53:30.330Z,35.89
2023-04-20T10:54:30.396Z,35.88
2023-04-20T10:55:30.461Z,35.88
2023-04-20T10:56:30.499Z,35.86
2023-04-20T10:57:30.568Z,35.84
2023-04-20T10:58:30.622Z,35.69
2023-04-20T10:59:30.709Z,35.87
2023-04-20T11:00:30.804Z,35.87
2023-04-20T11:01:30.876Z,35.89
2023-04-20T11:02:30.998Z,35.84
2023-04-20T11:03:31.125Z,35.84
2023-04-20T11:04:31.063Z,35.82
2023-04-20T11:05:31.056Z,35.82
2023-04-20T11:06:31.186Z,35.80
2023-04-20T11:07:31.171Z,35.78
2023-04-20T11:08:31.192Z,35.75
2023-04-20T11:09:31.259Z,35.74
2023-04-20T11:10:31.311Z,35.74
2023-04-20T11:11:31.343Z,35.71
2023-04-20T11:12:31.415Z,35.66
2023-04-20T11:13:31.460Z,35.66
2023-04-20T11:14:31.478Z,35.67
2023-04-20T11:15:31.540Z,35.64
2023-04-20T11:16:44.348Z,35.64
2023-04-20T11:17:32.665Z,35.66
2023-04-20T11:18:31.550Z,35.64
2023-04-20T11:19:31.563Z,35.62
2023-04-20T11:20:31.581Z,35.59
2023-04-20T11:21:31.540Z,35.61
2023-04-20T11:22:31.526Z,35.57
2023-04-20T11:23:31.526Z,35.51
2023-04-20T11:24:31.526Z,35.56
2023-04-20T11:25:31.539Z,35.57
2023-04-20T11:26:31.507Z,35.52
2023-04-20T11:27:31.506Z,35.25
2023-04-20T11:28:31.501Z,35.21
2023-04-20T11:29:31.733Z,35.35
2023-04-20T11:30:31.474Z,35.25
2023-04-20T11:31:31.595Z,34.88
2023-04-20T11:32:31.630Z,34.94
2023-04-20T11:33:31.541Z,35.04
2023-04-20T11:34:31.696Z,34.83
2023-04-20T11:35:31.480Z,34.90
2023-04-20T11:36:31.447Z,35.01
2023-04-20T11:37:31.449Z,34.99
2023-04-20T11:38:31.462Z,35.16
2023-04-20T11:39:31.460Z,34.94
2023-04-20T11:40:31.427Z,35.19
2023-04-20T11:41:31.435Z,35.19
2023-04-20T11:42:31.470Z,35.13
2023-04-20T11:43:31.440Z,35.18
2023-04-20T11:44:31.421Z,35.21
2023-04-20T11:45:31.736Z,35.01
2023-04-20T11:46:31.652Z,35.11
2023-04-20T11:47:31.492Z,35.13
2023-04-20T11:48:31.477Z,35.10
2023-04-20T11:49:31.464Z,35.04
2023-04-20T11:50:31.483Z,35.07
2023-04-20T11:51:31.446Z,35.02
2023-04-20T11:52:31.478Z,34.94
2023-04-20T11:53:31.530Z,35.00
2023-04-20T11:54:31.571Z,34.89
2023-04-20T11:55:31.591Z,34.77
2023-04-20T11:56:31.589Z,34.86
2023-04-20T11:57:31.604Z,34.86
2023-04-20T11:58:31.628Z,34.89
2023-04-20T11:59:31.606Z,34.81
2023-04-20T12:00:31.611Z,34.77
2023-04-20T12:01:31.622Z,34.77
2023-04-20T12:02:31.766Z,34.73
2023-04-20T12:03:31.765Z,34.69
2023-04-20T12:04:31.897Z,34.62
2023-04-20T12:05:31.753Z,34.65
2023-04-20T12:06:31.721Z,34.64
2023-04-20T12:07:31.744Z,34.59
2023-04-20T12:08:31.748Z,34.62
2023-04-20T12:09:31.746Z,34.61
2023-04-20T12:10:31.809Z,34.61
2023-04-20T12:11:31.869Z,34.54
2023-04-20T12:12:31.911Z,34.47
2023-04-20T12:13:31.913Z,34.39
2023-04-20T12:14:31.932Z,34.37
2023-04-20T12:15:32.025Z,34.36
2023-04-20T12:16:32.004Z,34.35
2023-04-20T12:17:31.991Z,34.33
2023-04-20T12:18:32.002Z,34.28
2023-04-20T12:19:32.031Z,34.23
2023-04-20T12:20:32.085Z,34.22
2023-04-20T12:21:32.133Z,34.10
2023-04-20T12:22:32.132Z,34.15
2023-04-20T12:23:32.202Z,34.12
2023-04-20T12:24:32.242Z,34.16
2023-04-20T12:25:32.242Z,34.14
2023-04-20T12:26:38.364Z,34.14
2023-04-20T12:27:33.239Z,34.08
2023-04-20T12:28:32.230Z,34.14
2023-04-20T12:29:32.234Z,34.05
2023-04-20T12:30:32.221Z,33.97
2023-04-20T12:31:32.308Z,33.98
2023-04-20T12:32:32.213Z,34.02
2023-04-20T12:33:32.199Z,34.00
2023-04-20T12:34:32.220Z,33.91
2023-04-20T12:35:32.205Z,33.89
2023-04-20T12:36:32.182Z,33.84
2023-04-20T12:37:32.167Z,33.81
2023-04-20T12:38:32.182Z,33.77
2023-04-20T12:39:32.160Z,33.75
2023-04-20T12:40:32.163Z,33.81
2023-04-20T12:41:32.141Z,33.80
2023-04-20T12:42:32.121Z,33.83
2023-04-20T12:43:32.121Z,33.74
2023-04-20T12:44:32.116Z,33.77
2023-04-20T12:45:32.112Z,33.75
2023-04-20T12:46:32.149Z,33.71
2023-04-20T12:47:32.114Z,33.69
2023-04-20T12:48:32.080Z,33.72
2023-04-20T12:49:33.948Z,33.66
2023-04-20T12:50:32.141Z,33.61
2023-04-20T12:51:32.350Z,33.57
2023-04-20T12:52:32.250Z,33.59